sensor_id;sensor_type;location;lat;lon;timestamp;P1;P4;P2;P0;N10;N4;N25;N1;N05;TS
71522;SPS30;59343;51.102;5.884;2023-05-29T00:00:20;4.16;4.16;4.16;3.93;31.40;31.40;31.39;31.34;27.67;0.47
71522;SPS30;59343;51.102;5.884;2023-05-29T00:02:47;4.11;4.11;4.11;3.88;31.02;31.01;31.00;30.96;27.33;0.46
71522;SPS30;59343;51.102;5.884;2023-05-29T00:05:14;4.01;4.01;4.01;3.80;30.30;30.30;30.29;30.24;26.70;0.45
71522;SPS30;59343;51.102;5.884;2023-05-29T00:07:41;4.25;4.25;4.25;4.02;32.11;32.10;32.10;32.05;28.29;0.45
71522;SPS30;59343;51.102;5.884;2023-05-29T00:10:08;4.20;4.20;4.20;3.98;31.74;31.74;31.73;31.68;27.97;0.46
71522;SPS30;59343;51.102;5.884;2023-05-29T00:12:35;4.24;4.24;4.24;4.01;31.99;31.98;31.97;31.93;28.19;0.45
71522;SPS30;59343;51.102;5.884;2023-05-29T00:15:02;4.40;4.40;4.40;4.16;33.21;33.21;33.20;33.15;29.27;0.45
71522;SPS30;59343;51.102;5.884;2023-05-29T00:17:31;4.04;4.04;4.04;3.82;30.51;30.51;30.50;30.45;26.89;0.45
71522;SPS30;59343;51.102;5.884;2023-05-29T00:19:58;4.36;4.36;4.36;4.12;32.90;32.89;32.89;32.84;28.99;0.46
71522;SPS30;59343;51.102;5.884;2023-05-29T00:22:24;4.20;4.20;4.20;3.97;31.72;31.71;31.71;31.66;27.95;0.45
71522;SPS30;59343;51.102;5.884;2023-05-29T00:24:51;4.38;4.38;4.38;4.14;33.08;33.08;33.07;33.02;29.15;0.46
71522;SPS30;59343;51.102;5.884;2023-05-29T00:27:17;4.53;4.53;4.53;4.28;34.17;34.16;34.15;34.10;30.11;0.46
71522;SPS30;59343;51.102;5.884;2023-05-29T00:29:43;4.58;4.58;4.58;4.33;34.60;34.60;34.59;34.54;30.49;0.45
71522;SPS30;59343;51.102;5.884;2023-05-29T00:32:09;4.26;4.26;4.26;4.03;32.17;32.16;32.15;32.10;28.34;0.45
71522;SPS30;59343;51.102;5.884;2023-05-29T00:34:35;4.30;4.30;4.30;4.07;32.46;32.46;32.45;32.40;28.60;0.46
71522;SPS30;59343;51.102;5.884;2023-05-29T00:37:00;4.61;4.61;4.61;4.36;34.82;34.81;34.81;34.75;30.68;0.46
71522;SPS30;59343;51.102;5.884;2023-05-29T00:39:27;4.47;4.47;4.47;4.22;33.73;33.72;33.71;33.66;29.72;0.46
71522;SPS30;59343;51.102;5.884;2023-05-29T00:41:52;4.31;4.31;4.31;4.08;32.57;32.57;32.56;32.51;28.70;0.46
71522;SPS30;59343;51.102;5.884;2023-05-29T00:44:19;4.54;4.54;4.54;4.29;34.24;34.24;34.23;34.17;30.16;0.48
71522;SPS30;59343;51.102;5.884;2023-05-29T00:46:48;4.81;4.81;4.81;4.55;36.33;36.33;36.32;36.26;32.02;0.47
71522;SPS30;59343;51.102;5.884;2023-05-29T00:49:18;4.77;4.77;4.77;4.51;35.99;35.98;35.97;35.92;31.71;0.46
71522;SPS30;59343;51.102;5.884;2023-05-29T00:51:47;4.61;4.60;4.60;4.35;34.73;34.72;34.72;34.66;30.60;0.48
71522;SPS30;59343;51.102;5.884;2023-05-29T00:54:17;4.71;4.71;4.71;4.45;35.53;35.52;35.51;35.46;31.30;0.48
71522;SPS30;59343;51.102;5.884;2023-05-29T00:56:52;4.86;4.86;4.86;4.59;36.67;36.67;36.66;36.60;32.31;0.46
71522;SPS30;59343;51.102;5.884;2023-05-29T00:59:18;4.68;4.68;4.68;4.43;35.36;35.36;35.35;35.30;31.16;0.47
71522;SPS30;59343;51.102;5.884;2023-05-29T01:01:47;4.71;4.71;4.71;4.46;35.60;35.59;35.58;35.53;31.37;0.46
71522;SPS30;59343;51.102;5.884;2023-05-29T01:04:16;4.86;4.86;4.86;4.60;36.73;36.72;36.71;36.66;32.36;0.46
71522;SPS30;59343;51.102;5.884;2023-05-29T01:06:42;4.91;4.91;4.91;4.64;37.07;37.07;37.06;37.00;32.67;0.46
71522;SPS30;59343;51.102;5.884;2023-05-29T01:09:09;4.74;4.74;4.74;4.48;35.80;35.80;35.79;35.73;31.55;0.45
71522;SPS30;59343;51.102;5.884;2023-05-29T01:11:49;4.67;4.67;4.67;4.41;35.23;35.23;35.22;35.16;31.04;0.46
71522;SPS30;59343;51.102;5.884;2023-05-29T01:14:33;5.04;5.04;5.04;4.77;38.06;38.05;38.04;37.98;33.53;0.46
71522;SPS30;59343;51.102;5.884;2023-05-29T01:17:06;4.93;4.93;4.93;4.67;37.26;37.25;37.24;37.19;32.83;0.47
71522;SPS30;59343;51.102;5.884;2023-05-29T01:22:54;4.93;4.93;4.93;4.66;37.21;37.21;37.20;37.14;32.79;0.46
71522;SPS30;59343;51.102;5.884;2023-05-29T01:26:06;5.03;5.03;5.03;4.75;37.96;37.95;37.95;37.89;33.45;0.45
71522;SPS30;59343;51.102;5.884;2023-05-29T01:28:48;4.82;4.82;4.82;4.56;36.42;36.41;36.40;36.35;32.09;0.45
71522;SPS30;59343;51.102;5.884;2023-05-29T01:31:19;5.03;5.03;5.03;4.76;37.98;37.97;37.96;37.91;33.46;0.47
71522;SPS30;59343;51.102;5.884;2023-05-29T01:33:54;4.71;4.71;4.70;4.45;35.52;35.52;35.51;35.45;31.30;0.47
71522;SPS30;59343;51.102;5.884;2023-05-29T01:36:22;4.88;4.88;4.88;4.61;36.80;36.80;36.79;36.73;32.41;0.48
71522;SPS30;59343;51.102;5.884;2023-05-29T01:38:49;5.15;5.15;5.15;4.87;38.88;38.87;38.86;38.80;34.26;0.46
71522;SPS30;59343;51.102;5.884;2023-05-29T01:41:17;5.23;5.23;5.23;4.95;39.48;39.48;39.47;39.41;34.79;0.44
71522;SPS30;59343;51.102;5.884;2023-05-29T01:43:45;5.37;5.37;5.37;5.07;40.51;40.50;40.49;40.43;35.69;0.46
71522;SPS30;59343;51.102;5.884;2023-05-29T01:46:13;4.82;4.82;4.82;4.56;36.42;36.41;36.40;36.35;32.09;0.46
71522;SPS30;59343;51.102;5.884;2023-05-29T01:48:43;5.23;5.23;5.23;4.95;39.51;39.50;39.49;39.43;34.81;0.46
71522;SPS30;59343;51.102;5.884;2023-05-29T01:51:10;5.14;5.14;5.14;4.86;38.82;38.82;38.81;38.75;34.21;0.45
71522;SPS30;59343;51.102;5.884;2023-05-29T01:53:41;5.40;5.40;5.40;5.10;40.76;40.75;40.74;40.67;35.91;0.48
71522;SPS30;59343;51.102;5.884;2023-05-29T01:56:08;5.29;5.29;5.29;5.00;39.90;39.90;39.89;39.83;35.16;0.48
71522;SPS30;59343;51.102;5.884;2023-05-29T01:58:35;5.52;5.52;5.52;5.22;41.68;41.67;41.66;41.60;36.72;0.48
71522;SPS30;59343;51.102;5.884;2023-05-29T02:01:02;5.17;5.17;5.16;4.88;38.98;38.97;38.96;38.90;34.34;0.47
71522;SPS30;59343;51.102;5.884;2023-05-29T02:03:29;5.35;5.35;5.35;5.06;40.40;40.39;40.38;40.32;35.60;0.46
71522;SPS30;59343;51.102;5.884;2023-05-29T02:05:58;4.89;4.89;4.89;4.62;36.89;36.89;36.88;36.82;32.51;0.47
71522;SPS30;59343;51.102;5.884;2023-05-29T02:08:26;5.01;5.01;5.01;4.73;37.79;37.79;37.78;37.72;33.30;0.47
71522;SPS30;59343;51.102;5.884;2023-05-29T02:10:52;4.84;4.84;4.84;4.57;36.51;36.50;36.50;36.44;32.17;0.46
71522;SPS30;59343;51.102;5.884;2023-05-29T02:13:18;4.62;4.62;4.62;4.37;34.91;34.90;34.89;34.84;30.76;0.48
71522;SPS30;59343;51.102;5.884;2023-05-29T02:15:44;4.68;4.67;4.66;4.39;35.05;35.04;35.03;34.96;30.84;0.49
71522;SPS30;59343;51.102;5.884;2023-05-29T02:18:11;4.54;4.53;4.52;4.26;33.99;33.98;33.97;33.90;29.90;0.49
71522;SPS30;59343;51.102;5.884;2023-05-29T02:20:39;4.37;4.37;4.36;4.12;32.92;32.91;32.90;32.85;28.99;0.48
71522;SPS30;59343;51.102;5.884;2023-05-29T02:23:05;4.87;4.87;4.87;4.60;36.76;36.76;36.75;36.69;32.39;0.47
71522;SPS30;59343;51.102;5.884;2023-05-29T02:25:33;4.16;4.16;4.16;3.93;31.37;31.37;31.36;31.31;27.64;0.48
71522;SPS30;59343;51.102;5.884;2023-05-29T02:27:59;4.05;4.05;4.04;3.82;30.49;30.48;30.47;30.42;26.85;0.49
71522;SPS30;59343;51.102;5.884;2023-05-29T02:30:25;4.31;4.30;4.28;4.02;32.13;32.12;32.11;32.03;28.24;0.50
71522;SPS30;59343;51.102;5.884;2023-05-29T02:32:51;4.06;4.04;3.99;3.72;29.69;29.68;29.66;29.56;25.99;0.51
71522;SPS30;59343;51.102;5.884;2023-05-29T02:35:17;3.93;3.91;3.88;3.63;28.99;28.99;28.97;28.89;25.44;0.50
71522;SPS30;59343;51.102;5.884;2023-05-29T02:37:46;3.83;3.82;3.78;3.54;28.23;28.22;28.21;28.12;24.75;0.51
71522;SPS30;59343;51.102;5.884;2023-05-29T02:40:14;4.20;4.16;4.07;3.75;29.91;29.90;29.88;29.72;26.05;0.52
71522;SPS30;59343;51.102;5.884;2023-05-29T02:42:41;4.30;4.27;4.20;3.89;31.07;31.06;31.04;30.91;27.14;0.50
71522;SPS30;59343;51.102;5.884;2023-05-29T02:45:06;3.96;3.93;3.85;3.56;28.45;28.44;28.42;28.29;24.82;0.51
71522;SPS30;59343;51.102;5.884;2023-05-29T02:47:33;3.80;3.75;3.66;3.36;26.87;26.87;26.84;26.69;23.38;0.52
71522;SPS30;59343;51.102;5.884;2023-05-29T02:49:58;3.90;3.85;3.76;3.45;27.54;27.53;27.51;27.35;23.95;0.52
71522;SPS30;59343;51.102;5.884;2023-05-29T02:52:24;4.05;3.99;3.88;3.55;28.32;28.31;28.28;28.10;24.57;0.53
71522;SPS30;59343;51.102;5.884;2023-05-29T02:54:50;4.12;4.06;3.93;3.58;28.60;28.59;28.55;28.36;24.77;0.52
71522;SPS30;59343;51.102;5.884;2023-05-29T02:57:16;3.75;3.69;3.59;3.27;26.13;26.12;26.09;25.92;22.66;0.52
71522;SPS30;59343;51.102;5.884;2023-05-29T02:59:42;4.17;4.08;3.92;3.52;28.15;28.14;28.09;27.85;24.24;0.54
71522;SPS30;59343;51.102;5.884;2023-05-29T03:02:09;3.82;3.74;3.57;3.18;25.42;25.41;25.36;25.11;21.81;0.54
71522;SPS30;59343;51.102;5.884;2023-05-29T03:04:35;3.94;3.85;3.69;3.29;26.30;26.29;26.25;26.00;22.59;0.54
71522;SPS30;59343;51.102;5.884;2023-05-29T03:07:01;3.91;3.84;3.72;3.37;26.95;26.94;26.90;26.71;23.31;0.53
71522;SPS30;59343;51.102;5.884;2023-05-29T03:09:30;4.23;4.16;4.02;3.65;29.16;29.15;29.11;28.90;25.22;0.55
71522;SPS30;59343;51.102;5.884;2023-05-29T03:11:56;3.92;3.84;3.67;3.29;26.26;26.25;26.21;25.97;22.58;0.57
71522;SPS30;59343;51.102;5.884;2023-05-29T03:14:22;3.85;3.78;3.64;3.28;26.18;26.17;26.13;25.91;22.57;0.54
71522;SPS30;59343;51.102;5.884;2023-05-29T03:16:48;3.86;3.78;3.62;3.24;25.89;25.88;25.83;25.60;22.26;0.54
71522;SPS30;59343;51.102;5.884;2023-05-29T03:19:14;3.63;3.56;3.42;3.08;24.60;24.59;24.55;24.34;21.19;0.56
71522;SPS30;59343;51.102;5.884;2023-05-29T03:21:40;3.57;3.51;3.38;3.04;24.30;24.29;24.26;24.06;20.96;0.55
71522;SPS30;59343;51.102;5.884;2023-05-29T03:24:06;3.88;3.82;3.71;3.39;27.06;27.05;27.02;26.84;23.46;0.55
71522;SPS30;59343;51.102;5.884;2023-05-29T03:26:33;3.78;3.68;3.50;3.10;24.80;24.79;24.74;24.48;21.22;0.58
71522;SPS30;59343;51.102;5.884;2023-05-29T03:29:02;3.76;3.66;3.48;3.07;24.55;24.54;24.49;24.22;20.98;0.57
71522;SPS30;59343;51.102;5.884;2023-05-29T03:31:29;4.01;3.89;3.66;3.19;25.52;25.51;25.45;25.12;21.69;0.55
71522;SPS30;59343;51.102;5.884;2023-05-29T03:33:55;3.89;3.76;3.51;3.03;24.19;24.18;24.12;23.76;20.44;0.57
71522;SPS30;59343;51.102;5.884;2023-05-29T03:36:28;4.05;3.90;3.62;3.10;24.78;24.76;24.69;24.30;20.85;0.59
71522;SPS30;59343;51.102;5.884;2023-05-29T03:38:53;4.03;3.87;3.55;3.00;23.94;23.93;23.85;23.42;20.00;0.60
71522;SPS30;59343;51.102;5.884;2023-05-29T03:41:19;4.24;4.06;3.72;3.13;25.05;25.03;24.95;24.49;20.90;0.59
71522;SPS30;59343;51.102;5.884;2023-05-29T03:43:46;4.18;4.02;3.69;3.12;24.96;24.94;24.86;24.42;20.87;0.60
71522;SPS30;59343;51.102;5.884;2023-05-29T03:46:12;4.11;3.95;3.63;3.07;24.51;24.50;24.42;23.99;20.50;0.60
71522;SPS30;59343;51.102;5.884;2023-05-29T03:48:38;4.00;3.83;3.50;2.93;23.42;23.41;23.33;22.88;19.49;0.60
71522;SPS30;59343;51.102;5.884;2023-05-29T03:51:04;3.88;3.71;3.36;2.79;22.30;22.29;22.20;21.74;18.47;0.60
71522;SPS30;59343;51.102;5.884;2023-05-29T03:53:34;3.96;3.80;3.50;2.97;23.71;23.69;23.62;23.21;19.84;0.60
71522;SPS30;59343;51.102;5.884;2023-05-29T03:56:00;3.86;3.72;3.43;2.93;23.38;23.37;23.30;22.92;19.63;0.59
71522;SPS30;59343;51.102;5.884;2023-05-29T03:58:27;4.05;3.86;3.49;2.88;23.03;23.01;22.93;22.43;19.02;0.61
71522;SPS30;59343;51.102;5.884;2023-05-29T04:00:54;3.94;3.75;3.36;2.74;21.88;21.86;21.77;21.25;17.94;0.63
71522;SPS30;59343;51.102;5.884;2023-05-29T04:03:20;4.01;3.82;3.45;2.83;22.65;22.64;22.55;22.05;18.67;0.61
71522;SPS30;59343;51.102;5.884;2023-05-29T04:05:47;3.90;3.71;3.35;2.76;22.10;22.08;22.00;21.52;18.23;0.60
71522;SPS30;59343;51.102;5.884;2023-05-29T04:08:13;3.82;3.65;3.32;2.77;22.14;22.13;22.05;21.61;18.38;0.60
71522;SPS30;59343;51.102;5.884;2023-05-29T04:10:39;3.94;3.75;3.37;2.75;22.02;22.00;21.91;21.40;18.09;0.63
71522;SPS30;59343;51.102;5.884;2023-05-29T04:13:05;3.73;3.54;3.16;2.56;20.47;20.45;20.36;19.86;16.73;0.62
71522;SPS30;59343;51.102;5.884;2023-05-29T04:15:31;4.12;3.89;3.44;2.74;21.89;21.87;21.77;21.17;17.74;0.62
71522;SPS30;59343;51.102;5.884;2023-05-29T04:17:59;4.02;3.79;3.33;2.63;21.00;20.98;20.88;20.27;16.92;0.62
71522;SPS30;59343;51.102;5.884;2023-05-29T04:20:25;3.69;3.48;3.05;2.41;19.27;19.25;19.15;18.60;15.52;0.62
71522;SPS30;59343;51.102;5.884;2023-05-29T04:22:51;4.17;3.93;3.45;2.73;21.82;21.80;21.69;21.07;17.59;0.64
71522;SPS30;59343;51.102;5.884;2023-05-29T04:25:18;4.68;4.36;3.72;2.80;22.41;22.38;22.24;21.42;17.56;0.67
71522;SPS30;59343;51.102;5.884;2023-05-29T04:27:44;4.27;3.98;3.42;2.60;20.79;20.77;20.64;19.91;16.39;0.65
71522;SPS30;59343;51.102;5.884;2023-05-29T04:30:15;4.13;3.85;3.31;2.51;20.08;20.06;19.93;19.22;15.82;0.66
71522;SPS30;59343;51.102;5.884;2023-05-29T04:32:44;4.22;3.93;3.37;2.54;20.35;20.32;20.19;19.46;15.98;0.66
71522;SPS30;59343;51.102;5.884;2023-05-29T04:35:12;4.08;3.81;3.27;2.48;19.87;19.84;19.72;19.02;15.65;0.67
71522;SPS30;59343;51.102;5.884;2023-05-29T04:37:44;4.59;4.26;3.62;2.69;21.52;21.49;21.34;20.51;16.74;0.67
71522;SPS30;59343;51.102;5.884;2023-05-29T04:40:11;4.14;3.87;3.34;2.55;20.37;20.34;20.22;19.53;16.10;0.65
71522;SPS30;59343;51.102;5.884;2023-05-29T04:42:39;4.27;3.98;3.43;2.61;20.92;20.89;20.77;20.05;16.52;0.64
71522;SPS30;59343;51.102;5.884;2023-05-29T04:45:09;4.36;4.07;3.49;2.64;21.10;21.07;20.94;20.18;16.58;0.64
71522;SPS30;59343;51.102;5.884;2023-05-29T04:47:38;4.33;4.03;3.43;2.56;20.48;20.46;20.32;19.54;15.98;0.65
71522;SPS30;59343;51.102;5.884;2023-05-29T04:50:13;4.29;3.96;3.32;2.40;19.24;19.21;19.06;18.23;14.73;0.68
71522;SPS30;59343;51.102;5.884;2023-05-29T04:52:42;4.49;4.15;3.48;2.53;20.29;20.26;20.11;19.25;15.58;0.68
71522;SPS30;59343;51.102;5.884;2023-05-29T04:55:09;4.69;4.31;3.57;2.52;20.22;20.19;20.02;19.06;15.24;0.71
71522;SPS30;59343;51.102;5.884;2023-05-29T04:57:38;4.78;4.39;3.61;2.53;20.23;20.20;20.02;19.02;15.14;0.72
71522;SPS30;59343;51.102;5.884;2023-05-29T05:00:06;5.10;4.64;3.75;2.52;20.22;20.18;19.98;18.83;14.72;0.73
71522;SPS30;59343;51.102;5.884;2023-05-29T05:02:41;4.90;4.48;3.66;2.53;20.28;20.24;20.06;19.00;15.04;0.71
71522;SPS30;59343;51.102;5.884;2023-05-29T05:05:08;4.62;4.24;3.50;2.46;19.71;19.68;19.51;18.56;14.80;0.70
71522;SPS30;59343;51.102;5.884;2023-05-29T05:07:34;5.10;4.65;3.78;2.57;20.58;20.54;20.34;19.22;15.10;0.74
71522;SPS30;59343;51.102;5.884;2023-05-29T05:10:01;5.26;4.79;3.88;2.64;21.16;21.12;20.92;19.76;15.51;0.74
71522;SPS30;59343;51.102;5.884;2023-05-29T05:12:28;4.90;4.48;3.64;2.50;20.01;19.97;19.78;18.71;14.75;0.73
71522;SPS30;59343;51.102;5.884;2023-05-29T05:14:54;4.62;4.22;3.44;2.37;18.97;18.94;18.76;17.77;14.03;0.73
71522;SPS30;59343;51.102;5.884;2023-05-29T05:17:20;5.00;4.56;3.69;2.50;20.03;19.99;19.80;18.68;14.65;0.74
71522;SPS30;59343;51.102;5.884;2023-05-29T05:19:46;5.14;4.66;3.74;2.49;19.97;19.93;19.72;18.55;14.42;0.75
71522;SPS30;59343;51.102;5.884;2023-05-29T05:22:15;4.94;4.49;3.62;2.43;19.45;19.41;19.22;18.10;14.12;0.73
71522;SPS30;59343;51.102;5.884;2023-05-29T05:24:41;4.55;4.13;3.31;2.19;17.59;17.56;17.37;16.32;12.66;0.73
71522;SPS30;59343;51.102;5.884;2023-05-29T05:27:07;4.71;4.27;3.42;2.27;18.20;18.17;17.98;16.89;13.11;0.73
71522;SPS30;59343;51.102;5.884;2023-05-29T05:29:34;5.36;4.87;3.93;2.64;21.19;21.15;20.94;19.73;15.41;0.73
71522;SPS30;59343;51.102;5.884;2023-05-29T05:32:00;5.22;4.75;3.83;2.58;20.65;20.61;20.41;19.23;15.03;0.75
71522;SPS30;59343;51.102;5.884;2023-05-29T05:34:25;4.70;4.28;3.47;2.36;18.92;18.88;18.70;17.66;13.87;0.74
71522;SPS30;59343;51.102;5.884;2023-05-29T05:36:51;5.20;4.72;3.77;2.49;19.98;19.94;19.73;18.52;14.34;0.77
71522;SPS30;59343;51.102;5.884;2023-05-29T05:39:17;4.80;4.37;3.53;2.37;19.03;18.99;18.80;17.72;13.85;0.76
71522;SPS30;59343;51.102;5.884;2023-05-29T05:41:46;5.17;4.71;3.81;2.58;20.65;20.61;20.41;19.26;15.09;0.76
71522;SPS30;59343;51.102;5.884;2023-05-29T05:44:16;5.26;4.77;3.80;2.50;20.05;20.01;19.79;18.56;14.34;0.78
71522;SPS30;59343;51.102;5.884;2023-05-29T05:46:48;5.44;4.90;3.83;2.41;19.33;19.29;19.05;17.69;13.35;0.82
71522;SPS30;59343;51.102;5.884;2023-05-29T05:49:14;5.29;4.77;3.76;2.41;19.36;19.32;19.09;17.81;13.58;0.79
71522;SPS30;59343;51.102;5.884;2023-05-29T05:51:41;5.24;4.74;3.76;2.43;19.51;19.47;19.24;17.99;13.79;0.78
71522;SPS30;59343;51.102;5.884;2023-05-29T05:54:08;6.04;5.42;4.23;2.64;21.19;21.14;20.87;19.35;14.55;0.79
71522;SPS30;59343;51.102;5.884;2023-05-29T05:56:35;5.98;5.37;4.19;2.61;20.96;20.91;20.64;19.14;14.38;0.80
71522;SPS30;59343;51.102;5.884;2023-05-29T05:59:00;5.79;5.23;4.12;2.64;21.20;21.15;20.90;19.50;14.87;0.79
71522;SPS30;59343;51.102;5.884;2023-05-29T06:01:26;5.26;4.77;3.81;2.51;20.10;20.06;19.84;18.61;14.38;0.78
71522;SPS30;59343;51.102;5.884;2023-05-29T06:03:52;4.80;4.36;3.50;2.33;18.68;18.64;18.45;17.35;13.49;0.76
71522;SPS30;59343;51.102;5.884;2023-05-29T06:06:19;4.78;4.34;3.49;2.32;18.63;18.59;18.40;17.30;13.46;0.76
71522;SPS30;59343;51.102;5.884;2023-05-29T06:08:46;4.60;4.22;3.49;2.47;19.81;19.78;19.61;18.67;14.93;0.71
71522;SPS30;59343;51.102;5.884;2023-05-29T06:11:12;4.91;4.50;3.70;2.59;20.77;20.74;20.56;19.53;15.55;0.73
71522;SPS30;59343;51.102;5.884;2023-05-29T06:13:42;4.71;4.30;3.52;2.43;19.50;19.46;19.28;18.28;14.47;0.73
71522;SPS30;59343;51.102;5.884;2023-05-29T06:16:13;4.37;4.00;3.27;2.26;18.14;18.11;17.95;17.01;13.47;0.74
71522;SPS30;59343;51.102;5.884;2023-05-29T06:18:39;4.20;3.87;3.21;2.29;18.35;18.32;18.17;17.33;13.90;0.73
71522;SPS30;59343;51.102;5.884;2023-05-29T06:21:06;4.54;4.17;3.45;2.44;19.56;19.53;19.36;18.43;14.74;0.73
71522;SPS30;59343;51.102;5.884;2023-05-29T06:23:33;5.15;4.73;3.90;2.74;21.94;21.91;21.72;20.65;16.47;0.73
71522;SPS30;59343;51.102;5.884;2023-05-29T06:25:59;4.64;4.25;3.48;2.41;19.32;19.28;19.11;18.12;14.36;0.74
71522;SPS30;59343;51.102;5.884;2023-05-29T06:28:25;4.57;4.18;3.41;2.36;18.88;18.85;18.67;17.69;14.00;0.74
71522;SPS30;59343;51.102;5.884;2023-05-29T06:30:52;5.03;4.58;3.71;2.52;20.17;20.14;19.94;18.82;14.76;0.75
71522;SPS30;59343;51.102;5.884;2023-05-29T06:33:18;4.55;4.18;3.46;2.44;19.56;19.53;19.37;18.43;14.73;0.72
71522;SPS30;59343;51.102;5.884;2023-05-29T06:35:45;4.71;4.33;3.60;2.57;20.58;20.54;20.38;19.43;15.60;0.71
71522;SPS30;59343;51.102;5.884;2023-05-29T06:38:11;4.48;4.11;3.37;2.34;18.78;18.75;18.58;17.63;14.00;0.72
71522;SPS30;59343;51.102;5.884;2023-05-29T06:40:46;5.07;4.66;3.87;2.75;22.01;21.97;21.79;20.77;16.64;0.72
71522;SPS30;59343;51.102;5.884;2023-05-29T06:43:12;4.43;4.06;3.35;2.35;18.84;18.81;18.64;17.73;14.13;0.74
71522;SPS30;59343;51.102;5.884;2023-05-29T06:45:38;4.88;4.46;3.63;2.49;19.92;19.89;19.70;18.64;14.69;0.74
71522;SPS30;59343;51.102;5.884;2023-05-29T06:48:06;4.69;4.32;3.58;2.55;20.40;20.37;20.20;19.25;15.43;0.72
71522;SPS30;59343;51.102;5.884;2023-05-29T06:50:32;4.74;4.34;3.54;2.45;19.61;19.58;19.40;18.38;14.54;0.72
71522;SPS30;59343;51.102;5.884;2023-05-29T06:53:08;4.52;4.12;3.34;2.27;18.18;18.15;17.97;16.97;13.33;0.75
71522;SPS30;59343;51.102;5.884;2023-05-29T06:55:43;4.85;4.41;3.55;2.38;19.04;19.01;18.81;17.71;13.81;0.74
71522;SPS30;59343;51.102;5.884;2023-05-29T06:58:09;4.92;4.48;3.62;2.44;19.56;19.52;19.33;18.22;14.26;0.74
71522;SPS30;59343;51.102;5.884;2023-05-29T07:00:35;5.09;4.64;3.77;2.58;20.65;20.61;20.41;19.29;15.18;0.72
71522;SPS30;59343;51.102;5.884;2023-05-29T07:03:18;4.57;4.17;3.40;2.33;18.67;18.64;18.46;17.47;13.78;0.74
71522;SPS30;59343;51.102;5.884;2023-05-29T07:05:45;4.72;4.33;3.56;2.49;19.95;19.92;19.74;18.76;14.92;0.72
71522;SPS30;59343;51.102;5.884;2023-05-29T07:08:11;4.59;4.20;3.44;2.39;19.14;19.11;18.94;17.96;14.25;0.71
71522;SPS30;59343;51.102;5.884;2023-05-29T07:10:36;5.11;4.68;3.83;2.65;21.22;21.18;20.99;19.90;15.75;0.72
71522;SPS30;59343;51.102;5.884;2023-05-29T07:13:02;4.78;4.38;3.60;2.50;20.07;20.03;19.86;18.85;14.97;0.71
71522;SPS30;59343;51.102;5.884;2023-05-29T07:15:28;4.38;4.03;3.34;2.37;19.00;18.97;18.81;17.92;14.36;0.70
71522;SPS30;59343;51.102;5.884;2023-05-29T07:17:55;4.48;4.12;3.40;2.40;19.22;19.19;19.03;18.10;14.46;0.72
71522;SPS30;59343;51.102;5.884;2023-05-29T07:20:25;4.95;4.54;3.74;2.62;20.98;20.94;20.76;19.73;15.71;0.72
71522;SPS30;59343;51.102;5.884;2023-05-29T07:22:52;5.02;4.59;3.76;2.60;20.87;20.83;20.64;19.57;15.51;0.72
71522;SPS30;59343;51.102;5.884;2023-05-29T07:25:17;5.34;4.86;3.92;2.63;21.12;21.08;20.87;19.66;15.36;0.73
71522;SPS30;59343;51.102;5.884;2023-05-29T07:27:43;5.05;4.63;3.81;2.66;21.31;21.27;21.08;20.02;15.92;0.72
71522;SPS30;59343;51.102;5.884;2023-05-29T07:30:09;4.34;4.00;3.35;2.42;19.38;19.35;19.21;18.36;14.82;0.70
71522;SPS30;59343;51.102;5.884;2023-05-29T07:32:36;4.50;4.16;3.50;2.56;20.50;20.47;20.32;19.47;15.79;0.71
71522;SPS30;59343;51.102;5.884;2023-05-29T07:35:02;5.05;4.65;3.85;2.73;21.87;21.84;21.65;20.63;16.51;0.73
71522;SPS30;59343;51.102;5.884;2023-05-29T07:37:28;4.36;4.02;3.36;2.43;19.42;19.39;19.24;18.39;14.83;0.73
71522;SPS30;59343;51.102;5.884;2023-05-29T07:42:37;4.80;4.41;3.66;2.60;20.82;20.79;20.62;19.65;15.75;0.70
71522;SPS30;59343;51.102;5.884;2023-05-29T07:45:03;4.62;4.23;3.48;2.43;19.50;19.47;19.30;18.33;14.59;0.72
71522;SPS30;59343;51.102;5.884;2023-05-29T07:47:29;4.70;4.33;3.61;2.58;20.70;20.67;20.50;19.57;15.74;0.69
71522;SPS30;59343;51.102;5.884;2023-05-29T07:49:55;4.34;4.00;3.35;2.42;19.38;19.35;19.20;18.36;14.81;0.70
71522;SPS30;59343;51.102;5.884;2023-05-29T07:52:24;4.43;4.08;3.40;2.45;19.58;19.55;19.40;18.53;14.91;0.70
71522;SPS30;59343;51.102;5.884;2023-05-29T07:54:50;4.64;4.28;3.57;2.57;20.62;20.59;20.43;19.52;15.73;0.68
71522;SPS30;59343;51.102;5.884;2023-05-29T07:57:16;4.42;4.08;3.44;2.51;20.14;20.11;19.96;19.12;15.51;0.68
71522;SPS30;59343;51.102;5.884;2023-05-29T07:59:43;4.85;4.47;3.73;2.68;21.46;21.43;21.26;20.31;16.35;0.70
71522;SPS30;59343;51.102;5.884;2023-05-29T08:02:10;4.33;3.98;3.30;2.34;18.78;18.75;18.59;17.72;14.20;0.70
71522;SPS30;59343;51.102;5.884;2023-05-29T08:05:02;4.68;4.33;3.63;2.64;21.15;21.11;20.96;20.06;16.23;0.68
71522;SPS30;59343;51.102;5.884;2023-05-29T08:07:29;4.09;3.81;3.25;2.44;19.56;19.53;19.40;18.68;15.32;0.65
71522;SPS30;59343;51.102;5.884;2023-05-29T08:09:56;3.74;3.50;3.03;2.33;18.67;18.65;18.54;17.93;14.84;0.65
71522;SPS30;59343;51.102;5.884;2023-05-29T08:12:22;4.35;4.05;3.47;2.62;20.96;20.93;20.80;20.04;16.46;0.66
71522;SPS30;59343;51.102;5.884;2023-05-29T08:14:50;4.56;4.23;3.60;2.68;21.47;21.44;21.29;20.47;16.73;0.67
71522;SPS30;59343;51.102;5.884;2023-05-29T08:17:16;4.04;3.75;3.20;2.39;19.17;19.14;19.01;18.30;14.97;0.67
71522;SPS30;59343;51.102;5.884;2023-05-29T08:19:42;4.52;4.19;3.56;2.64;21.13;21.10;20.96;20.14;16.43;0.67
71522;SPS30;59343;51.102;5.884;2023-05-29T08:22:11;4.18;3.87;3.25;2.38;19.03;19.00;18.86;18.06;14.64;0.68
71522;SPS30;59343;51.102;5.884;2023-05-29T08:24:39;4.21;3.90;3.31;2.45;19.59;19.56;19.42;18.65;15.20;0.67
71522;SPS30;59343;51.102;5.884;2023-05-29T08:27:05;3.96;3.69;3.18;2.42;19.33;19.31;19.19;18.52;15.25;0.64
71522;SPS30;59343;51.102;5.884;2023-05-29T08:29:31;4.27;3.98;3.42;2.58;20.68;20.66;20.53;19.79;16.26;0.64
71522;SPS30;59343;51.102;5.884;2023-05-29T08:31:57;3.98;3.70;3.14;2.34;18.70;18.68;18.55;17.83;14.56;0.66
71522;SPS30;59343;51.102;5.884;2023-05-29T08:34:23;4.21;3.91;3.33;2.49;19.94;19.91;19.78;19.03;15.57;0.67
71522;SPS30;59343;51.102;5.884;2023-05-29T08:36:48;4.35;4.04;3.43;2.55;20.38;20.35;20.21;19.42;15.85;0.67
71522;SPS30;59343;51.102;5.884;2023-05-29T08:39:17;4.11;3.80;3.20;2.35;18.80;18.77;18.64;17.86;14.50;0.68
71522;SPS30;59343;51.102;5.884;2023-05-29T08:44:32;4.04;3.75;3.19;2.38;19.02;19.00;18.87;18.14;14.83;0.66
71522;SPS30;59343;51.102;5.884;2023-05-29T08:47:01;4.03;3.77;3.26;2.49;19.96;19.94;19.82;19.15;15.81;0.65
71522;SPS30;59343;51.102;5.884;2023-05-29T08:49:29;4.13;3.86;3.33;2.55;20.43;20.41;20.29;19.60;16.19;0.66
71522;SPS30;59343;51.102;5.884;2023-05-29T08:55:00;4.43;4.12;3.52;2.64;21.15;21.12;20.98;20.20;16.55;0.67
71522;SPS30;59343;51.102;5.884;2023-05-29T08:57:28;4.25;3.94;3.35;2.49;19.93;19.90;19.77;18.99;15.50;0.66
71522;SPS30;59343;51.102;5.884;2023-05-29T08:59:55;4.28;3.98;3.40;2.55;20.37;20.35;20.21;19.46;15.94;0.64
71522;SPS30;59343;51.102;5.884;2023-05-29T09:02:23;4.22;3.93;3.38;2.56;20.51;20.49;20.36;19.64;16.16;0.64
71522;SPS30;59343;51.102;5.884;2023-05-29T09:04:48;3.90;3.65;3.17;2.46;19.65;19.62;19.51;18.89;15.65;0.64
71522;SPS30;59343;51.102;5.884;2023-05-29T09:07:15;4.03;3.76;3.23;2.45;19.63;19.60;19.48;18.79;15.47;0.66
71522;SPS30;59343;51.102;5.884;2023-05-29T09:09:44;3.98;3.70;3.16;2.36;18.90;18.87;18.75;18.04;14.76;0.66
71522;SPS30;59343;51.102;5.884;2023-05-29T09:12:13;4.58;4.23;3.55;2.58;20.66;20.63;20.47;19.59;15.85;0.68
71522;SPS30;59343;51.102;5.884;2023-05-29T09:14:40;4.38;4.08;3.48;2.61;20.92;20.89;20.76;19.98;16.38;0.66
71522;SPS30;59343;51.102;5.884;2023-05-29T09:17:08;3.88;3.62;3.12;2.38;19.07;19.05;18.94;18.29;15.08;0.66
71522;SPS30;59343;51.102;5.884;2023-05-29T09:19:35;3.71;3.45;2.94;2.21;17.67;17.65;17.53;16.88;13.83;0.67
71522;SPS30;59343;51.102;5.884;2023-05-29T09:22:02;4.08;3.80;3.26;2.46;19.67;19.65;19.52;18.81;15.44;0.64
71522;SPS30;59343;51.102;5.884;2023-05-29T09:24:32;4.39;4.10;3.54;2.70;21.62;21.59;21.46;20.73;17.10;0.64